sensor_id;sensor_type;location;lat;lon;timestamp;temperature;humidity
33269;DHT22;19640;50.944;5.260;2023-01-15T00:01:03;7.90;99.90
33269;DHT22;19640;50.944;5.260;2023-01-15T00:03:30;7.90;99.90
33269;DHT22;19640;50.944;5.260;2023-01-15T00:06:00;8.00;99.90
33269;DHT22;19640;50.944;5.260;2023-01-15T00:08:26;8.00;99.90
33269;DHT22;19640;50.944;5.260;2023-01-15T00:10:52;8.00;99.90
33269;DHT22;19640;50.944;5.260;2023-01-15T00:13:17;8.10;99.90
33269;DHT22;19640;50.944;5.260;2023-01-15T00:15:43;8.00;99.90
33269;DHT22;19640;50.944;5.260;2023-01-15T00:18:09;8.10;99.90
33269;DHT22;19640;50.944;5.260;2023-01-15T00:20:34;8.10;99.90
33269;DHT22;19640;50.944;5.260;2023-01-15T00:23:00;8.10;99.90
33269;DHT22;19640;50.944;5.260;2023-01-15T00:25:26;8.10;99.90
33269;DHT22;19640;50.944;5.260;2023-01-15T00:28:12;8.10;99.90
33269;DHT22;19640;50.944;5.260;2023-01-15T00:30:41;8.20;99.90
33269;DHT22;19640;50.944;5.260;2023-01-15T00:33:08;8.20;99.90
33269;DHT22;19640;50.944;5.260;2023-01-15T00:35:33;8.10;99.90
33269;DHT22;19640;50.944;5.260;2023-01-15T00:37:59;8.10;99.90
33269;DHT22;19640;50.944;5.260;2023-01-15T00:40:26;8.20;99.90
33269;DHT22;19640;50.944;5.260;2023-01-15T00:42:52;8.00;99.90
33269;DHT22;19640;50.944;5.260;2023-01-15T00:45:17;7.80;99.90
33269;DHT22;19640;50.944;5.260;2023-01-15T00:47:44;7.90;99.90
33269;DHT22;19640;50.944;5.260;2023-01-15T00:50:14;8.10;99.90
33269;DHT22;19640;50.944;5.260;2023-01-15T00:52:40;8.00;99.90
33269;DHT22;19640;50.944;5.260;2023-01-15T00:55:07;8.10;99.90
33269;DHT22;19640;50.944;5.260;2023-01-15T00:57:34;8.00;99.90
33269;DHT22;19640;50.944;5.260;2023-01-15T00:59:59;8.00;99.90
33269;DHT22;19640;50.944;5.260;2023-01-15T01:02:25;8.10;99.90
33269;DHT22;19640;50.944;5.260;2023-01-15T01:04:51;8.20;99.90
33269;DHT22;19640;50.944;5.260;2023-01-15T01:07:16;8.00;99.90
33269;DHT22;19640;50.944;5.260;2023-01-15T01:09:43;8.00;99.90
33269;DHT22;19640;50.944;5.260;2023-01-15T01:12:09;8.00;99.90
33269;DHT22;19640;50.944;5.260;2023-01-15T01:14:36;7.90;99.90
33269;DHT22;19640;50.944;5.260;2023-01-15T01:17:01;8.10;99.90
33269;DHT22;19640;50.944;5.260;2023-01-15T01:19:27;8.00;99.90
33269;DHT22;19640;50.944;5.260;2023-01-15T01:21:53;8.00;99.90
33269;DHT22;19640;50.944;5.260;2023-01-15T01:24:21;8.10;99.90
33269;DHT22;19640;50.944;5.260;2023-01-15T01:26:48;8.00;99.90
33269;DHT22;19640;50.944;5.260;2023-01-15T01:29:16;7.90;99.90
33269;DHT22;19640;50.944;5.260;2023-01-15T01:31:42;7.90;99.90
33269;DHT22;19640;50.944;5.260;2023-01-15T01:34:08;7.90;99.90
33269;DHT22;19640;50.944;5.260;2023-01-15T01:36:35;8.00;99.90
33269;DHT22;19640;50.944;5.260;2023-01-15T01:39:01;7.90;99.90
33269;DHT22;19640;50.944;5.260;2023-01-15T01:41:28;7.80;99.90
33269;DHT22;19640;50.944;5.260;2023-01-15T01:46:19;7.70;99.90
33269;DHT22;19640;50.944;5.260;2023-01-15T01:48:45;7.80;99.90
33269;DHT22;19640;50.944;5.260;2023-01-15T01:51:13;7.80;99.90
33269;DHT22;19640;50.944;5.260;2023-01-15T01:53:39;7.80;99.90
33269;DHT22;19640;50.944;5.260;2023-01-15T01:56:07;7.80;99.90
33269;DHT22;19640;50.944;5.260;2023-01-15T01:58:36;7.80;99.90
33269;DHT22;19640;50.944;5.260;2023-01-15T02:01:02;7.90;99.90
33269;DHT22;19640;50.944;5.260;2023-01-15T02:03:34;7.90;99.90
33269;DHT22;19640;50.944;5.260;2023-01-15T02:06:03;7.90;99.90
33269;DHT22;19640;50.944;5.260;2023-01-15T02:08:30;7.90;99.90
33269;DHT22;19640;50.944;5.260;2023-01-15T02:10:57;7.90;99.90
33269;DHT22;19640;50.944;5.260;2023-01-15T02:13:43;8.00;99.90
33269;DHT22;19640;50.944;5.260;2023-01-15T02:24:43;8.00;99.90
33269;DHT22;19640;50.944;5.260;2023-01-15T02:27:20;7.90;99.90
33269;DHT22;19640;50.944;5.260;2023-01-15T02:29:49;8.00;99.90
33269;DHT22;19640;50.944;5.260;2023-01-15T02:32:26;8.00;99.90
33269;DHT22;19640;50.944;5.260;2023-01-15T02:34:55;7.90;99.90
33269;DHT22;19640;50.944;5.260;2023-01-15T02:37:27;8.00;99.90
33269;DHT22;19640;50.944;5.260;2023-01-15T02:39:55;7.90;99.90
33269;DHT22;19640;50.944;5.260;2023-01-15T02:42:22;7.90;99.90
33269;DHT22;19640;50.944;5.260;2023-01-15T02:44:51;8.00;99.90
33269;DHT22;19640;50.944;5.260;2023-01-15T02:47:21;7.90;99.90
33269;DHT22;19640;50.944;5.260;2023-01-15T02:49:49;7.80;99.90
33269;DHT22;19640;50.944;5.260;2023-01-15T02:52:21;7.80;99.90
33269;DHT22;19640;50.944;5.260;2023-01-15T02:54:54;7.80;99.90
33269;DHT22;19640;50.944;5.260;2023-01-15T02:57:23;7.80;99.90
33269;DHT22;19640;50.944;5.260;2023-01-15T02:59:51;7.80;99.90
33269;DHT22;19640;50.944;5.260;2023-01-15T03:02:22;7.80;99.90
33269;DHT22;19640;50.944;5.260;2023-01-15T03:07:42;7.70;99.90
33269;DHT22;19640;50.944;5.260;2023-01-15T03:10:10;7.60;99.90
33269;DHT22;19640;50.944;5.260;2023-01-15T03:13:16;7.60;99.90
33269;DHT22;19640;50.944;5.260;2023-01-15T03:18:54;7.80;99.90
33269;DHT22;19640;50.944;5.260;2023-01-15T03:21:26;7.80;99.90
33269;DHT22;19640;50.944;5.260;2023-01-15T03:23:55;7.80;99.90
33269;DHT22;19640;50.944;5.260;2023-01-15T03:26:21;7.70;99.90
33269;DHT22;19640;50.944;5.260;2023-01-15T03:28:47;7.70;99.90
33269;DHT22;19640;50.944;5.260;2023-01-15T03:31:15;7.60;99.90
33269;DHT22;19640;50.944;5.260;2023-01-15T03:33:41;7.50;99.90
33269;DHT22;19640;50.944;5.260;2023-01-15T03:36:07;7.60;99.90
33269;DHT22;19640;50.944;5.260;2023-01-15T03:38:35;7.70;99.90
33269;DHT22;19640;50.944;5.260;2023-01-15T03:46:28;7.60;99.90
33269;DHT22;19640;50.944;5.260;2023-01-15T03:49:03;7.60;99.90
33269;DHT22;19640;50.944;5.260;2023-01-15T03:51:46;7.70;99.90
33269;DHT22;19640;50.944;5.260;2023-01-15T03:54:20;7.70;99.90
33269;DHT22;19640;50.944;5.260;2023-01-15T03:56:55;7.60;99.90
33269;DHT22;19640;50.944;5.260;2023-01-15T04:00:03;7.50;99.90
33269;DHT22;19640;50.944;5.260;2023-01-15T04:02:20;7.40;99.90
33269;DHT22;19640;50.944;5.260;2023-01-15T04:04:46;7.50;99.90
33269;DHT22;19640;50.944;5.260;2023-01-15T04:07:13;7.50;99.90
33269;DHT22;19640;50.944;5.260;2023-01-15T04:09:39;7.70;99.90
33269;DHT22;19640;50.944;5.260;2023-01-15T04:12:06;7.60;99.90
33269;DHT22;19640;50.944;5.260;2023-01-15T04:14:32;7.50;99.90
33269;DHT22;19640;50.944;5.260;2023-01-15T04:16:58;7.50;99.90
33269;DHT22;19640;50.944;5.260;2023-01-15T04:19:24;7.50;99.90
33269;DHT22;19640;50.944;5.260;2023-01-15T04:21:49;7.60;99.90
33269;DHT22;19640;50.944;5.260;2023-01-15T04:24:15;7.60;99.90
33269;DHT22;19640;50.944;5.260;2023-01-15T04:26:40;7.60;99.90
33269;DHT22;19640;50.944;5.260;2023-01-15T04:29:06;7.60;99.90
33269;DHT22;19640;50.944;5.260;2023-01-15T04:31:32;7.50;99.90
33269;DHT22;19640;50.944;5.260;2023-01-15T04:33:59;7.40;99.90
33269;DHT22;19640;50.944;5.260;2023-01-15T04:36:24;7.50;99.90
33269;DHT22;19640;50.944;5.260;2023-01-15T04:38:50;7.40;99.90
33269;DHT22;19640;50.944;5.260;2023-01-15T04:41:16;7.40;99.90
33269;DHT22;19640;50.944;5.260;2023-01-15T04:44:00;7.30;99.90
33269;DHT22;19640;50.944;5.260;2023-01-15T04:46:43;7.30;99.90
33269;DHT22;19640;50.944;5.260;2023-01-15T04:49:14;7.30;99.90
33269;DHT22;19640;50.944;5.260;2023-01-15T04:51:40;7.30;99.90
33269;DHT22;19640;50.944;5.260;2023-01-15T04:54:08;7.30;99.90
33269;DHT22;19640;50.944;5.260;2023-01-15T04:56:43;7.30;99.90
33269;DHT22;19640;50.944;5.260;2023-01-15T04:59:10;7.30;99.90
33269;DHT22;19640;50.944;5.260;2023-01-15T05:01:37;7.30;99.90
33269;DHT22;19640;50.944;5.260;2023-01-15T05:04:02;7.40;99.90
33269;DHT22;19640;50.944;5.260;2023-01-15T05:06:28;7.30;99.90
33269;DHT22;19640;50.944;5.260;2023-01-15T05:08:56;7.30;99.90
33269;DHT22;19640;50.944;5.260;2023-01-15T05:11:22;7.10;99.90
33269;DHT22;19640;50.944;5.260;2023-01-15T05:13:48;7.10;99.90
33269;DHT22;19640;50.944;5.260;2023-01-15T05:16:25;7.10;99.90
33269;DHT22;19640;50.944;5.260;2023-01-15T05:18:52;7.10;99.90
33269;DHT22;19640;50.944;5.260;2023-01-15T05:21:24;7.20;99.90
33269;DHT22;19640;50.944;5.260;2023-01-15T05:23:52;7.10;99.90
33269;DHT22;19640;50.944;5.260;2023-01-15T05:26:19;7.10;99.90
33269;DHT22;19640;50.944;5.260;2023-01-15T05:28:45;7.30;99.90
33269;DHT22;19640;50.944;5.260;2023-01-15T05:31:13;7.20;99.90
33269;DHT22;19640;50.944;5.260;2023-01-15T05:33:40;7.20;99.90
33269;DHT22;19640;50.944;5.260;2023-01-15T05:36:08;7.30;99.90
33269;DHT22;19640;50.944;5.260;2023-01-15T05:38:35;7.20;99.90
33269;DHT22;19640;50.944;5.260;2023-01-15T05:41:12;7.20;99.90
33269;DHT22;19640;50.944;5.260;2023-01-15T05:43:59;7.10;99.90
33269;DHT22;19640;50.944;5.260;2023-01-15T05:46:25;7.20;99.90
33269;DHT22;19640;50.944;5.260;2023-01-15T05:48:51;7.20;99.90
33269;DHT22;19640;50.944;5.260;2023-01-15T05:51:18;7.30;99.90
33269;DHT22;19640;50.944;5.260;2023-01-15T05:53:44;7.10;99.90
33269;DHT22;19640;50.944;5.260;2023-01-15T05:56:10;7.20;99.90
33269;DHT22;19640;50.944;5.260;2023-01-15T05:58:36;7.10;99.90
33269;DHT22;19640;50.944;5.260;2023-01-15T06:01:07;7.10;99.90
33269;DHT22;19640;50.944;5.260;2023-01-15T06:03:33;7.00;99.90
33269;DHT22;19640;50.944;5.260;2023-01-15T06:05:59;7.00;99.90
33269;DHT22;19640;50.944;5.260;2023-01-15T06:08:24;7.10;99.90
33269;DHT22;19640;50.944;5.260;2023-01-15T06:10:50;6.90;99.90
33269;DHT22;19640;50.944;5.260;2023-01-15T06:13:16;7.00;99.90
33269;DHT22;19640;50.944;5.260;2023-01-15T06:15:42;7.10;99.90
33269;DHT22;19640;50.944;5.260;2023-01-15T06:18:09;7.00;99.90
33269;DHT22;19640;50.944;5.260;2023-01-15T06:20:39;7.00;99.90
33269;DHT22;19640;50.944;5.260;2023-01-15T06:23:05;7.00;99.90
33269;DHT22;19640;50.944;5.260;2023-01-15T06:25:34;7.10;99.90
33269;DHT22;19640;50.944;5.260;2023-01-15T06:28:05;7.10;99.90
33269;DHT22;19640;50.944;5.260;2023-01-15T06:30:32;6.90;99.90
33269;DHT22;19640;50.944;5.260;2023-01-15T06:32:58;7.00;99.90
33269;DHT22;19640;50.944;5.260;2023-01-15T06:35:24;7.00;99.90
33269;DHT22;19640;50.944;5.260;2023-01-15T06:37:50;7.00;99.90
33269;DHT22;19640;50.944;5.260;2023-01-15T06:40:16;6.90;99.90
33269;DHT22;19640;50.944;5.260;2023-01-15T06:42:42;6.90;99.90
33269;DHT22;19640;50.944;5.260;2023-01-15T06:45:28;7.00;99.90
33269;DHT22;19640;50.944;5.260;2023-01-15T06:48:15;7.00;99.90
33269;DHT22;19640;50.944;5.260;2023-01-15T06:50:41;7.00;99.90
33269;DHT22;19640;50.944;5.260;2023-01-15T06:53:06;6.70;99.90
33269;DHT22;19640;50.944;5.260;2023-01-15T06:55:32;6.60;99.90
33269;DHT22;19640;50.944;5.260;2023-01-15T06:57:58;6.50;99.90
33269;DHT22;19640;50.944;5.260;2023-01-15T07:00:23;6.50;99.90
33269;DHT22;19640;50.944;5.260;2023-01-15T07:02:49;6.60;99.90
33269;DHT22;19640;50.944;5.260;2023-01-15T07:05:15;6.40;99.90
33269;DHT22;19640;50.944;5.260;2023-01-15T07:07:40;6.40;99.90
33269;DHT22;19640;50.944;5.260;2023-01-15T07:10:06;6.30;99.90
33269;DHT22;19640;50.944;5.260;2023-01-15T07:12:34;6.20;99.90
33269;DHT22;19640;50.944;5.260;2023-01-15T07:14:59;6.20;99.90
33269;DHT22;19640;50.944;5.260;2023-01-15T07:17:25;6.20;99.90
33269;DHT22;19640;50.944;5.260;2023-01-15T07:19:50;6.10;99.90
33269;DHT22;19640;50.944;5.260;2023-01-15T07:22:16;6.00;99.90
33269;DHT22;19640;50.944;5.260;2023-01-15T07:24:42;6.00;99.90
33269;DHT22;19640;50.944;5.260;2023-01-15T07:27:07;6.10;99.90
33269;DHT22;19640;50.944;5.260;2023-01-15T07:29:33;6.20;99.90
33269;DHT22;19640;50.944;5.260;2023-01-15T07:31:59;6.20;99.90
33269;DHT22;19640;50.944;5.260;2023-01-15T07:34:25;6.20;99.90
33269;DHT22;19640;50.944;5.260;2023-01-15T07:36:50;6.20;99.90
33269;DHT22;19640;50.944;5.260;2023-01-15T07:39:17;6.20;99.90
33269;DHT22;19640;50.944;5.260;2023-01-15T07:41:42;6.20;99.90
33269;DHT22;19640;50.944;5.260;2023-01-15T07:44:27;6.30;99.90
33269;DHT22;19640;50.944;5.260;2023-01-15T07:47:22;6.20;99.90
33269;DHT22;19640;50.944;5.260;2023-01-15T07:50:10;6.10;99.90
33269;DHT22;19640;50.944;5.260;2023-01-15T07:52:36;6.00;99.90
33269;DHT22;19640;50.944;5.260;2023-01-15T07:55:02;5.90;99.90
33269;DHT22;19640;50.944;5.260;2023-01-15T07:57:28;5.90;99.90
33269;DHT22;19640;50.944;5.260;2023-01-15T07:59:54;5.80;99.90
33269;DHT22;19640;50.944;5.260;2023-01-15T08:02:19;5.80;99.90
33269;DHT22;19640;50.944;5.260;2023-01-15T08:04:45;5.80;99.90
33269;DHT22;19640;50.944;5.260;2023-01-15T08:07:13;6.00;99.90
33269;DHT22;19640;50.944;5.260;2023-01-15T08:09:39;5.90;99.90
33269;DHT22;19640;50.944;5.260;2023-01-15T08:12:05;5.90;99.90
33269;DHT22;19640;50.944;5.260;2023-01-15T08:14:49;6.00;99.90
33269;DHT22;19640;50.944;5.260;2023-01-15T08:17:35;6.00;99.90
33269;DHT22;19640;50.944;5.260;2023-01-15T08:20:07;6.00;99.90
33269;DHT22;19640;50.944;5.260;2023-01-15T08:22:33;6.00;99.90
33269;DHT22;19640;50.944;5.260;2023-01-15T08:24:58;6.10;99.90
33269;DHT22;19640;50.944;5.260;2023-01-15T08:27:24;6.10;99.90
33269;DHT22;19640;50.944;5.260;2023-01-15T08:29:51;6.20;99.90
33269;DHT22;19640;50.944;5.260;2023-01-15T08:32:17;6.10;99.90
33269;DHT22;19640;50.944;5.260;2023-01-15T08:34:42;6.10;99.90
33269;DHT22;19640;50.944;5.260;2023-01-15T08:37:08;6.10;99.90
33269;DHT22;19640;50.944;5.260;2023-01-15T08:39:34;6.10;99.90
33269;DHT22;19640;50.944;5.260;2023-01-15T08:42:00;6.00;99.90
33269;DHT22;19640;50.944;5.260;2023-01-15T08:44:25;6.00;99.90
33269;DHT22;19640;50.944;5.260;2023-01-15T08:46:52;6.10;99.90
33269;DHT22;19640;50.944;5.260;2023-01-15T08:49:18;6.10;99.90
33269;DHT22;19640;50.944;5.260;2023-01-15T08:51:45;6.10;99.90
33269;DHT22;19640;50.944;5.260;2023-01-15T08:54:14;6.20;99.90
33269;DHT22;19640;50.944;5.260;2023-01-15T08:56:40;6.30;99.90
33269;DHT22;19640;50.944;5.260;2023-01-15T08:59:06;6.30;99.90
33269;DHT22;19640;50.944;5.260;2023-01-15T09:01:35;6.20;99.90
33269;DHT22;19640;50.944;5.260;2023-01-15T09:04:00;6.30;99.90
33269;DHT22;19640;50.944;5.260;2023-01-15T09:06:26;6.30;99.90
33269;DHT22;19640;50.944;5.260;2023-01-15T09:08:52;6.40;99.90
33269;DHT22;19640;50.944;5.260;2023-01-15T09:11:18;6.40;99.90
33269;DHT22;19640;50.944;5.260;2023-01-15T09:13:44;6.40;99.90
33269;DHT22;19640;50.944;5.260;2023-01-15T09:16:12;6.40;99.90
33269;DHT22;19640;50.944;5.260;2023-01-15T09:18:38;6.40;99.90
33269;DHT22;19640;50.944;5.260;2023-01-15T09:21:06;6.50;99.90
33269;DHT22;19640;50.944;5.260;2023-01-15T09:23:32;6.60;99.90
33269;DHT22;19640;50.944;5.260;2023-01-15T09:26:00;6.60;99.90
33269;DHT22;19640;50.944;5.260;2023-01-15T09:28:29;6.50;99.90
33269;DHT22;19640;50.944;5.260;2023-01-15T09:30:55;6.50;99.90
33269;DHT22;19640;50.944;5.260;2023-01-15T09:33:21;6.60;99.90
33269;DHT22;19640;50.944;5.260;2023-01-15T09:35:47;6.60;99.90
33269;DHT22;19640;50.944;5.260;2023-01-15T09:38:14;6.70;99.90
33269;DHT22;19640;50.944;5.260;2023-01-15T09:41:05;6.70;99.90
33269;DHT22;19640;50.944;5.260;2023-01-15T09:43:53;6.70;99.90
33269;DHT22;19640;50.944;5.260;2023-01-15T09:46:24;6.90;99.90
33269;DHT22;19640;50.944;5.260;2023-01-15T09:54:41;7.00;99.90
33269;DHT22;19640;50.944;5.260;2023-01-15T09:57:14;7.00;99.90
33269;DHT22;19640;50.944;5.260;2023-01-15T09:59:43;7.10;99.90
33269;DHT22;19640;50.944;5.260;2023-01-15T10:05:06;7.20;99.90
33269;DHT22;19640;50.944;5.260;2023-01-15T10:10:26;7.30;99.90
33269;DHT22;19640;50.944;5.260;2023-01-15T10:13:20;7.10;99.90
33269;DHT22;19640;50.944;5.260;2023-01-15T10:15:48;7.20;99.90
33269;DHT22;19640;50.944;5.260;2023-01-15T10:18:23;7.30;99.90
33269;DHT22;19640;50.944;5.260;2023-01-15T10:26:14;7.30;99.90
33269;DHT22;19640;50.944;5.260;2023-01-15T10:31:30;7.20;99.90
33269;DHT22;19640;50.944;5.260;2023-01-15T10:34:53;7.10;99.90
33269;DHT22;19640;50.944;5.260;2023-01-15T10:37:14;7.00;99.90
33269;DHT22;19640;50.944;5.260;2023-01-15T10:39:56;7.00;99.90
33269;DHT22;19640;50.944;5.260;2023-01-15T10:42:51;7.10;99.90
33269;DHT22;19640;50.944;5.260;2023-01-15T10:45:23;7.00;99.90
33269;DHT22;19640;50.944;5.260;2023-01-15T10:48:00;6.90;99.90
33269;DHT22;19640;50.944;5.260;2023-01-15T10:50:27;6.90;99.90
33269;DHT22;19640;50.944;5.260;2023-01-15T10:53:00;7.00;99.90
33269;DHT22;19640;50.944;5.260;2023-01-15T10:55:51;7.10;99.90
33269;DHT22;19640;50.944;5.260;2023-01-15T11:01:24;7.10;99.90
33269;DHT22;19640;50.944;5.260;2023-01-15T11:03:51;7.00;99.90
33269;DHT22;19640;50.944;5.260;2023-01-15T11:06:20;7.10;99.90
33269;DHT22;19640;50.944;5.260;2023-01-15T11:08:52;7.00;99.90
33269;DHT22;19640;50.944;5.260;2023-01-15T11:11:25;7.00;99.90
33269;DHT22;19640;50.944;5.260;2023-01-15T11:14:12;6.90;99.90
33269;DHT22;19640;50.944;5.260;2023-01-15T11:17:01;6.80;99.90
33269;DHT22;19640;50.944;5.260;2023-01-15T11:19:36;6.90;99.90
33269;DHT22;19640;50.944;5.260;2023-01-15T11:22:13;6.90;99.90
33269;DHT22;19640;50.944;5.260;2023-01-15T11:24:54;7.00;99.90
33269;DHT22;19640;50.944;5.260;2023-01-15T11:27:26;7.10;99.90
33269;DHT22;19640;50.944;5.260;2023-01-15T11:29:55;7.30;99.90
33269;DHT22;19640;50.944;5.260;2023-01-15T11:32:33;7.30;99.90
33269;DHT22;19640;50.944;5.260;2023-01-15T11:37:32;7.40;99.90
33269;DHT22;19640;50.944;5.260;2023-01-15T11:39:59;7.40;99.90
33269;DHT22;19640;50.944;5.260;2023-01-15T11:42:36;7.40;99.90
33269;DHT22;19640;50.944;5.260;2023-01-15T11:45:21;7.50;99.90
33269;DHT22;19640;50.944;5.260;2023-01-15T11:48:20;7.50;99.90
33269;DHT22;19640;50.944;5.260;2023-01-15T11:51:13;7.60;99.90
33269;DHT22;19640;50.944;5.260;2023-01-15T11:53:45;7.50;99.90
33269;DHT22;19640;50.944;5.260;2023-01-15T11:56:17;7.80;99.90
33269;DHT22;19640;50.944;5.260;2023-01-15T11:58:46;7.80;99.90
33269;DHT22;19640;50.944;5.260;2023-01-15T12:01:21;7.70;99.90
33269;DHT22;19640;50.944;5.260;2023-01-15T12:03:50;7.80;99.90
33269;DHT22;19640;50.944;5.260;2023-01-15T12:06:18;7.70;99.90
33269;DHT22;19640;50.944;5.260;2023-01-15T12:15:22;7.80;99.90
33269;DHT22;19640;50.944;5.260;2023-01-15T12:20:56;7.60;99.90
33269;DHT22;19640;50.944;5.260;2023-01-15T12:26:22;8.00;99.90
33269;DHT22;19640;50.944;5.260;2023-01-15T12:32:09;8.00;99.90
33269;DHT22;19640;50.944;5.260;2023-01-15T12:34:58;8.10;99.90
33269;DHT22;19640;50.944;5.260;2023-01-15T12:37:28;8.20;99.90
33269;DHT22;19640;50.944;5.260;2023-01-15T12:40:16;8.10;99.90
33269;DHT22;19640;50.944;5.260;2023-01-15T12:42:45;8.00;99.90
33269;DHT22;19640;50.944;5.260;2023-01-15T12:45:36;7.90;99.90
33269;DHT22;19640;50.944;5.260;2023-01-15T12:55:37;7.80;99.90
33269;DHT22;19640;50.944;5.260;2023-01-15T12:58:04;7.80;99.90
33269;DHT22;19640;50.944;5.260;2023-01-15T13:00:41;7.80;99.90
33269;DHT22;19640;50.944;5.260;2023-01-15T13:03:26;7.80;99.90
33269;DHT22;19640;50.944;5.260;2023-01-15T13:05:56;7.70;99.90
33269;DHT22;19640;50.944;5.260;2023-01-15T13:10:59;7.80;99.90
33269;DHT22;19640;50.944;5.260;2023-01-15T13:13:29;7.80;99.90
33269;DHT22;19640;50.944;5.260;2023-01-15T13:18:57;7.80;99.90
33269;DHT22;19640;50.944;5.260;2023-01-15T13:21:29;7.80;99.90
33269;DHT22;19640;50.944;5.260;2023-01-15T13:24:15;7.80;99.90
33269;DHT22;19640;50.944;5.260;2023-01-15T13:32:40;7.70;99.90
33269;DHT22;19640;50.944;5.260;2023-01-15T13:37:52;7.70;99.90
33269;DHT22;19640;50.944;5.260;2023-01-15T13:40:30;7.70;99.90
33269;DHT22;19640;50.944;5.260;2023-01-15T13:42:59;7.80;99.90
33269;DHT22;19640;50.944;5.260;2023-01-15T13:45:33;7.80;99.90
33269;DHT22;19640;50.944;5.260;2023-01-15T13:48:06;7.80;99.90
33269;DHT22;19640;50.944;5.260;2023-01-15T13:50:35;7.80;99.90
33269;DHT22;19640;50.944;5.260;2023-01-15T13:53:13;7.90;99.90
33269;DHT22;19640;50.944;5.260;2023-01-15T13:55:48;7.80;99.90
33269;DHT22;19640;50.944;5.260;2023-01-15T13:58:25;8.00;99.90
33269;DHT22;19640;50.944;5.260;2023-01-15T14:03:58;8.00;99.90
33269;DHT22;19640;50.944;5.260;2023-01-15T14:06:35;7.90;99.90
33269;DHT22;19640;50.944;5.260;2023-01-15T14:09:02;7.80;99.90
33269;DHT22;19640;50.944;5.260;2023-01-15T14:12:00;7.70;99.90
33269;DHT22;19640;50.944;5.260;2023-01-15T14:14:49;7.80;99.90
33269;DHT22;19640;50.944;5.260;2023-01-15T14:28:55;7.70;99.90
33269;DHT22;19640;50.944;5.260;2023-01-15T14:31:47;7.60;99.90
33269;DHT22;19640;50.944;5.260;2023-01-15T14:34:19;7.60;99.90
33269;DHT22;19640;50.944;5.260;2023-01-15T14:37:00;7.60;99.90
33269;DHT22;19640;50.944;5.260;2023-01-15T14:39:51;7.50;99.90
33269;DHT22;19640;50.944;5.260;2023-01-15T14:50:28;7.30;99.90
33269;DHT22;19640;50.944;5.260;2023-01-15T14:55:46;7.40;99.90
33269;DHT22;19640;50.944;5.260;2023-01-15T15:01:02;7.40;99.90
33269;DHT22;19640;50.944;5.260;2023-01-15T15:03:45;7.20;99.90
33269;DHT22;19640;50.944;5.260;2023-01-15T15:06:13;7.30;99.90
33269;DHT22;19640;50.944;5.260;2023-01-15T15:08:40;7.30;99.90
33269;DHT22;19640;50.944;5.260;2023-01-15T15:11:15;7.30;99.90
33269;DHT22;19640;50.944;5.260;2023-01-15T15:14:03;7.20;99.90
33269;DHT22;19640;50.944;5.260;2023-01-15T15:16:31;7.20;99.90
33269;DHT22;19640;50.944;5.260;2023-01-15T15:19:06;7.50;99.90
33269;DHT22;19640;50.944;5.260;2023-01-15T15:21:41;7.50;99.90
33269;DHT22;19640;50.944;5.260;2023-01-15T15:24:35;7.50;99.90
33269;DHT22;19640;50.944;5.260;2023-01-15T15:27:14;7.40;99.90
33269;DHT22;19640;50.944;5.260;2023-01-15T15:29:41;7.30;99.90
33269;DHT22;19640;50.944;5.260;2023-01-15T15:32:14;7.40;99.90
33269;DHT22;19640;50.944;5.260;2023-01-15T15:34:44;7.30;99.90
33269;DHT22;19640;50.944;5.260;2023-01-15T15:37:24;7.40;99.90
33269;DHT22;19640;50.944;5.260;2023-01-15T15:42:40;7.50;99.90
33269;DHT22;19640;50.944;5.260;2023-01-15T15:45:29;7.40;99.90
33269;DHT22;19640;50.944;5.260;2023-01-15T15:51:01;7.40;99.90
33269;DHT22;19640;50.944;5.260;2023-01-15T15:53:28;7.50;99.90
33269;DHT22;19640;50.944;5.260;2023-01-15T15:55:56;7.40;99.90
33269;DHT22;19640;50.944;5.260;2023-01-15T15:58:30;7.30;99.90
33269;DHT22;19640;50.944;5.260;2023-01-15T16:00:57;7.20;99.90
33269;DHT22;19640;50.944;5.260;2023-01-15T16:03:25;7.20;99.90
33269;DHT22;19640;50.944;5.260;2023-01-15T16:06:03;7.20;99.90
33269;DHT22;19640;50.944;5.260;2023-01-15T16:08:31;7.20;99.90
33269;DHT22;19640;50.944;5.260;2023-01-15T16:11:06;7.30;99.90
33269;DHT22;19640;50.944;5.260;2023-01-15T16:13:41;7.30;99.90
33269;DHT22;19640;50.944;5.260;2023-01-15T16:16:09;7.20;99.90
33269;DHT22;19640;50.944;5.260;2023-01-15T16:18:41;7.20;99.90
33269;DHT22;19640;50.944;5.260;2023-01-15T16:21:38;7.10;99.90
33269;DHT22;19640;50.944;5.260;2023-01-15T16:24:03;7.10;99.90
33269;DHT22;19640;50.944;5.260;2023-01-15T16:29:28;7.20;99.90
33269;DHT22;19640;50.944;5.260;2023-01-15T16:31:55;7.20;99.90
33269;DHT22;19640;50.944;5.260;2023-01-15T16:34:29;7.20;99.90
33269;DHT22;19640;50.944;5.260;2023-01-15T16:36:56;7.10;99.90
33269;DHT22;19640;50.944;5.260;2023-01-15T16:39:26;7.10;99.90
33269;DHT22;19640;50.944;5.260;2023-01-15T16:41:57;7.00;99.90
33269;DHT22;19640;50.944;5.260;2023-01-15T16:44:34;6.90;99.90
33269;DHT22;19640;50.944;5.260;2023-01-15T16:47:00;6.90;99.90
33269;DHT22;19640;50.944;5.260;2023-01-15T16:49:30;6.90;99.90
33269;DHT22;19640;50.944;5.260;2023-01-15T16:51:57;6.90;99.90
33269;DHT22;19640;50.944;5.260;2023-01-15T16:56:58;6.90;99.90
33269;DHT22;19640;50.944;5.260;2023-01-15T17:02:19;6.80;99.90
33269;DHT22;19640;50.944;5.260;2023-01-15T17:04:45;6.90;99.90
33269;DHT22;19640;50.944;5.260;2023-01-15T17:07:33;6.70;99.90
33269;DHT22;19640;50.944;5.260;2023-01-15T17:10:00;6.70;99.90
33269;DHT22;19640;50.944;5.260;2023-01-15T17:12:34;6.60;99.90
33269;DHT22;19640;50.944;5.260;2023-01-15T17:17:45;6.70;99.90
33269;DHT22;19640;50.944;5.260;2023-01-15T17:20:13;6.70;99.90
33269;DHT22;19640;50.944;5.260;2023-01-15T17:22:44;6.60;99.90
33269;DHT22;19640;50.944;5.260;2023-01-15T17:25:25;6.60;99.90
33269;DHT22;19640;50.944;5.260;2023-01-15T17:27:52;6.50;99.90
33269;DHT22;19640;50.944;5.260;2023-01-15T17:30:19;6.40;99.90
33269;DHT22;19640;50.944;5.260;2023-01-15T17:32:45;6.40;99.90
33269;DHT22;19640;50.944;5.260;2023-01-15T17:35:24;6.30;99.90
33269;DHT22;19640;50.944;5.260;2023-01-15T17:37:50;6.30;99.90
33269;DHT22;19640;50.944;5.260;2023-01-15T17:40:16;6.40;99.90
33269;DHT22;19640;50.944;5.260;2023-01-15T17:42:42;6.30;99.90
33269;DHT22;19640;50.944;5.260;2023-01-15T17:45:30;6.50;99.90
33269;DHT22;19640;50.944;5.260;2023-01-15T17:47:57;6.30;99.90
33269;DHT22;19640;50.944;5.260;2023-01-15T17:50:23;6.40;99.90
33269;DHT22;19640;50.944;5.260;2023-01-15T17:52:49;6.30;99.90
33269;DHT22;19640;50.944;5.260;2023-01-15T17:55:18;6.40;99.90
33269;DHT22;19640;50.944;5.260;2023-01-15T17:58:02;6.40;99.90
33269;DHT22;19640;50.944;5.260;2023-01-15T18:00:47;6.50;99.90
33269;DHT22;19640;50.944;5.260;2023-01-15T18:03:32;6.60;99.90
33269;DHT22;19640;50.944;5.260;2023-01-15T18:06:18;6.60;99.90
33269;DHT22;19640;50.944;5.260;2023-01-15T18:08:47;6.90;99.90
33269;DHT22;19640;50.944;5.260;2023-01-15T18:11:14;6.70;99.90
33269;DHT22;19640;50.944;5.260;2023-01-15T18:13:40;6.70;99.90
33269;DHT22;19640;50.944;5.260;2023-01-15T18:16:07;6.60;99.90
33269;DHT22;19640;50.944;5.260;2023-01-15T18:18:32;6.80;99.90